This is the latest recevied weather packets stored in our database for station/object OE-11349. If no packets are shown the sender has not sent any weather packets the latest 10 day(s).
| Time | Temp. | Humidity | Pressure | Rain* | Wind** | Luminosity | Snow |
|---|---|---|---|---|---|---|---|
| 1788091881 | 18.89° C | 59% | 853.9 hPa | - | - | 530 W/m² | - |
| 1788091509 | 18.89° C | 59% | 853.9 hPa | - | - | 502 W/m² | - |
| 1788090909 | 18.33° C | 58% | 854 hPa | - | - | 585 W/m² | - |
| 1788090081 | 18.33° C | 60% | 854 hPa | - | - | 406 W/m² | - |
| 1788089708 | 18.33° C | 60% | 854.1 hPa | - | - | 303 W/m² | - |
| 1788089109 | 17.78° C | 60% | 854.1 hPa | - | - | 200 W/m² | - |
| 1788088282 | 17.78° C | 60% | 854.1 hPa | - | - | 186 W/m² | - |
| 1788087909 | 18.89° C | 57% | 854 hPa | - | - | 454 W/m² | - |
| 1788087309 | 18.89° C | 56% | 854 hPa | - | - | 564 W/m² | - |
| 1788086482 | 18.89° C | 55% | 854.4 hPa | - | - | 606 W/m² | - |
| 1788086109 | 18.89° C | 54% | 854.4 hPa | - | - | 695 W/m² | - |
| 1788085509 | 18.89° C | 56% | 854.5 hPa | - | - | 819 W/m² | - |
| 1788084682 | 17.78° C | 56% | 854.5 hPa | - | - | 461 W/m² | - |
| 1788084309 | 17.78° C | 57% | 854.5 hPa | - | - | 434 W/m² | - |
| 1788083708 | 18.33° C | 52% | 854.5 hPa | - | - | 736 W/m² | - |
| 1788082882 | 17.78° C | 52% | 854.5 hPa | - | - | 709 W/m² | - |
| 1788082509 | 17.78° C | 55% | 854.5 hPa | - | - | 702 W/m² | - |
| 1788081908 | 17.78° C | 53% | 854.5 hPa | - | - | 681 W/m² | - |
| 1788081082 | 17.22° C | 58% | 854.5 hPa | - | - | 661 W/m² | - |
| 1788080708 | 17.22° C | 59% | 854.5 hPa | - | - | 647 W/m² | - |
| 1788080109 | 17.22° C | 59% | 854.5 hPa | - | - | 626 W/m² | - |
| 1788079282 | 16.67° C | 59% | 854.6 hPa | - | - | 606 W/m² | - |
| 1788078908 | 16.67° C | 63% | 854.6 hPa | - | - | 578 W/m² | - |
| 1788078309 | 16.11° C | 63% | 854.5 hPa | - | - | 557 W/m² | - |
| 1788077481 | 16.11° C | 63% | 854.5 hPa | - | - | 537 W/m² | - |
* Rain since midnight (hover to see other rain measurements)
** Current wind speed in m/s (hover to see current wind gust speed)